Time;durP1;ratioP1;P1;durP2;ratioP2;P2;SDS_P1;SDS_P2;PMS_P1;PMS_P2;Temp;Humidity;BMP_temperature;BMP_pressure;BME280_temperature;BME280_humidity;BME280_pressure;Samples;Min_cycle;Max_cycle;Signal;HPM_P1;HPM_P2
2023/07/21 00:00:19;;;;;;;2.25;1.52;;;;;;;23.03;47.11;101326.78;5026673;28;20126;-71
2023/07/21 00:02:49;;;;;;;2.45;1.42;;;;;;;23.03;47.16;101321.47;5025479;28;20041;-70
2023/07/21 00:05:15;;;;;;;1.75;1.65;;;;;;;22.91;46.92;101308.69;5039668;28;20048;-70
2023/07/21 00:07:44;;;;;;;1.63;1.52;;;;;;;23.01;47.08;101329.66;5028741;28;20080;-71
2023/07/21 00:10:11;;;;;;;2.08;1.38;;;;;;;23.02;47.04;101319.84;5027146;28;20030;-70
2023/07/21 00:12:40;;;;;;;2.97;1.73;;;;;;;23.00;46.95;101321.88;5026633;28;20087;-70
2023/07/21 00:15:06;;;;;;;4.30;1.92;;;;;;;22.99;47.27;101317.56;5028913;28;20033;-70
2023/07/21 00:17:34;;;;;;;1.50;1.40;;;;;;;23.00;46.80;101308.59;5030581;28;20037;-70
2023/07/21 00:20:08;;;;;;;2.08;1.60;;;;;;;22.98;47.15;101316.75;5026281;28;20060;-70
2023/07/21 00:22:33;;;;;;;2.60;1.73;;;;;;;22.99;47.19;101314.91;5027822;28;20052;-71
2023/07/21 00:25:00;;;;;;;1.40;1.30;;;;;;;22.95;47.22;101313.63;5028161;28;20037;-70
2023/07/21 00:27:26;;;;;;;1.67;1.58;;;;;;;22.97;47.33;101309.75;5027231;28;20048;-71
2023/07/21 00:29:52;;;;;;;2.22;1.60;;;;;;;22.95;47.08;101303.81;5027045;28;20049;-70
2023/07/21 00:32:18;;;;;;;2.33;1.85;;;;;;;22.98;47.09;101306.13;5013292;28;20060;-71
2023/07/21 00:34:44;;;;;;;2.55;1.40;;;;;;;22.99;46.93;101307.75;5028379;28;20042;-71
2023/07/21 00:37:10;;;;;;;1.90;1.60;;;;;;;22.97;46.91;101314.25;5025354;28;20095;-70
2023/07/21 00:39:37;;;;;;;1.92;1.70;;;;;;;22.96;47.25;101313.44;5027010;28;20041;-70
2023/07/21 00:42:04;;;;;;;2.45;1.58;;;;;;;22.95;47.26;101310.97;5026802;28;20042;-70
2023/07/21 00:44:30;;;;;;;2.08;1.63;;;;;;;22.90;47.34;101301.72;5029973;28;20484;-70
2023/07/21 00:46:56;;;;;;;1.90;1.70;;;;;;;22.94;47.05;101304.81;5012449;28;20173;-69
2023/07/21 00:49:22;;;;;;;1.50;1.40;;;;;;;22.95;47.09;101303.00;5028758;28;20036;-70
2023/07/21 00:51:47;;;;;;;2.10;1.38;;;;;;;22.95;47.14;101303.00;5028320;28;20042;-70
2023/07/21 00:54:13;;;;;;;2.90;1.75;;;;;;;22.92;47.08;101305.03;5031279;28;20029;-71
2023/07/21 00:56:39;;;;;;;1.50;1.40;;;;;;;22.92;47.19;101302.38;5044147;28;20120;-69
2023/07/21 00:59:04;;;;;;;2.65;1.67;;;;;;;22.91;47.12;101298.06;5027138;28;20049;-69
2023/07/21 01:01:30;;;;;;;1.85;1.60;;;;;;;22.92;47.27;101301.53;5044301;28;20053;-71
2023/07/21 01:03:57;;;;;;;2.17;1.70;;;;;;;22.89;47.28;101297.44;5032848;28;20048;-71
2023/07/21 01:06:27;;;;;;;1.52;1.30;;;;;;;22.91;47.28;101291.94;5031124;28;20034;-70
2023/07/21 01:08:54;;;;;;;;;;;;;;;22.90;47.28;101296.41;5030939;28;20052;-69
2023/07/21 01:11:20;;;;;;;1.90;1.60;;;;;;;22.89;47.39;101289.47;5031075;28;20433;-70
2023/07/21 01:13:46;;;;;;;2.13;1.67;;;;;;;22.85;47.34;101277.59;5029086;28;20103;-71
2023/07/21 01:16:13;;;;;;;1.92;1.50;;;;;;;22.90;47.30;101287.63;5032719;28;20105;-71
2023/07/21 01:18:41;;;;;;;1.63;1.25;;;;;;;22.89;47.50;101286.00;5028641;28;20044;-70
2023/07/21 01:21:10;;;;;;;1.70;1.55;;;;;;;22.86;47.25;101291.69;5043827;28;20041;-70
2023/07/21 01:23:44;;;;;;;1.40;1.30;;;;;;;22.87;47.36;101288.03;5031126;28;20042;-71
2023/07/21 01:26:12;;;;;;;3.08;1.73;;;;;;;22.85;47.30;101282.06;5043957;28;20037;-69
2023/07/21 01:28:40;;;;;;;1.80;1.55;;;;;;;22.86;47.15;101287.19;5026246;28;20042;-71
2023/07/21 01:31:06;;;;;;;1.73;1.30;;;;;;;22.82;47.36;101277.16;5033278;28;20101;-70
2023/07/21 01:33:32;;;;;;;1.30;1.20;;;;;;;22.79;47.13;101265.00;5028285;28;20129;-70
2023/07/21 01:36:00;;;;;;;2.25;1.50;;;;;;;22.87;47.05;101277.41;5040600;28;20038;-71
2023/07/21 01:38:29;;;;;;;1.88;1.45;;;;;;;22.86;47.23;101273.09;5043363;28;20052;-70
2023/07/21 01:40:55;;;;;;;2.22;1.50;;;;;;;22.83;47.42;101263.69;5047155;28;20044;-70
2023/07/21 01:43:23;;;;;;;2.03;1.45;;;;;;;22.84;47.12;101267.16;5031330;28;20033;-72
2023/07/21 01:45:49;;;;;;;2.38;1.48;;;;;;;22.83;47.25;101266.34;5027710;28;20093;-71
2023/07/21 01:48:15;;;;;;;2.05;1.35;;;;;;;22.73;47.55;101247.19;5030846;28;20041;-70
2023/07/21 01:50:42;;;;;;;1.88;1.35;;;;;;;22.84;47.53;101262.66;5026082;28;20083;-70
2023/07/21 01:53:14;;;;;;;1.65;1.15;;;;;;;22.84;47.11;101262.66;5027629;28;20557;-70
2023/07/21 01:55:46;;;;;;;2.15;1.60;;;;;;;22.79;47.39;101257.03;5028498;28;20756;-70
2023/07/21 01:58:14;;;;;;;1.67;1.58;;;;;;;22.79;47.58;101254.38;5029986;28;20419;-70
2023/07/21 02:00:43;;;;;;;1.67;1.50;;;;;;;22.80;47.45;101252.56;5044524;28;20359;-71
2023/07/21 02:03:10;;;;;;;1.90;1.55;;;;;;;22.79;47.38;101249.09;5027538;28;20056;-72
2023/07/21 02:05:35;;;;;;;1.67;1.45;;;;;;;22.79;47.59;101250.91;5030182;28;20711;-71
2023/07/21 02:08:01;;;;;;;2.22;1.40;;;;;;;22.80;47.28;101247.25;5029920;28;20056;-70
2023/07/21 02:10:27;;;;;;;1.75;1.50;;;;;;;22.66;47.15;101226.91;5030395;28;20045;-71
2023/07/21 02:13:04;;;;;;;1.73;1.38;;;;;;;22.78;47.50;101247.44;5033298;28;20053;-70
2023/07/21 02:15:31;;;;;;;2.22;1.50;;;;;;;22.77;47.36;101247.63;5028023;28;20093;-70
2023/07/21 02:17:56;;;;;;;1.58;1.40;;;;;;;22.75;47.49;101245.16;5043444;28;20136;-70
2023/07/21 02:20:23;;;;;;;2.03;1.50;;;;;;;22.76;47.71;101251.28;5028250;28;20109;-70
2023/07/21 02:22:51;;;;;;;1.92;1.70;;;;;;;22.74;47.55;101246.19;5027195;28;20132;-71
2023/07/21 02:25:17;;;;;;;2.33;1.60;;;;;;;22.76;47.39;101246.81;5042610;28;20434;-71
2023/07/21 02:27:43;;;;;;;1.63;1.52;;;;;;;22.76;47.55;101240.69;5029240;28;20034;-70
2023/07/21 02:30:09;;;;;;;2.78;1.55;;;;;;;22.73;47.35;101244.53;5028868;28;20037;-70
2023/07/21 02:32:35;;;;;;;1.95;1.50;;;;;;;22.71;47.53;101243.91;5027371;28;20041;-70
2023/07/21 02:35:01;;;;;;;1.60;1.50;;;;;;;22.74;47.30;101240.88;5029987;28;20089;-70
2023/07/21 02:37:28;;;;;;;1.85;1.35;;;;;;;22.73;47.50;101241.88;5029228;28;20742;-71
2023/07/21 02:39:53;;;;;;;1.77;1.60;;;;;;;22.73;47.55;101235.75;5027730;28;20045;-71
2023/07/21 02:42:19;;;;;;;2.20;1.60;;;;;;;22.64;47.35;101223.63;5027933;28;20037;-72
2023/07/21 02:44:45;;;;;;;1.50;1.40;;;;;;;22.66;47.48;101229.56;5043352;28;20041;-71
2023/07/21 02:47:14;;;;;;;2.00;1.38;;;;;;;22.70;47.41;101231.66;5029667;28;20041;-71
2023/07/21 02:49:40;;;;;;;1.85;1.63;;;;;;;22.70;47.59;101233.47;5031304;28;20037;-71
2023/07/21 02:52:07;;;;;;;1.60;1.50;;;;;;;22.71;47.37;101229.81;5028254;28;20128;-71
2023/07/21 02:54:33;;;;;;;2.38;1.70;;;;;;;22.70;47.21;101230.81;5030682;28;20041;-72
2023/07/21 02:56:59;;;;;;;2.22;1.70;;;;;;;22.70;47.51;101229.00;5044188;28;20046;-71
2023/07/21 02:59:26;;;;;;;1.65;1.55;;;;;;;22.67;47.62;101224.06;5029594;28;20756;-71
2023/07/21 03:01:57;;;;;;;2.10;1.53;;;;;;;22.66;47.69;101227.72;5042123;28;20124;-72
2023/07/21 03:04:35;;;;;;;1.92;1.52;;;;;;;22.67;47.47;101226.72;5042588;28;20452;-72
2023/07/21 03:07:03;;;;;;;1.63;1.53;;;;;;;22.68;47.35;101232.84;5041686;28;20541;-73
2023/07/21 03:09:29;;;;;;;1.67;1.50;;;;;;;22.66;47.58;101225.06;5028657;28;20026;-72
2023/07/21 03:11:56;;;;;;;1.50;1.38;;;;;;;22.64;47.67;101220.97;5028960;28;20628;-71
2023/07/21 03:14:48;;;;;;;3.05;1.50;;;;;;;22.66;47.67;101224.25;5015629;28;20029;-71
2023/07/21 03:17:14;;;;;;;2.17;1.52;;;;;;;22.53;47.27;101204.53;5044132;28;20482;-70
2023/07/21 03:19:40;;;;;;;2.08;1.50;;;;;;;22.63;47.70;101222.81;5027435;28;20073;-70
2023/07/21 03:22:09;;;;;;;1.63;1.52;;;;;;;22.65;47.37;101220.78;5027566;28;20041;-70
2023/07/21 03:24:39;;;;;;;1.45;1.27;;;;;;;22.56;47.58;101198.81;5028260;28;20053;-70
2023/07/21 03:27:07;;;;;;;2.58;1.30;;;;;;;22.63;47.54;101217.50;5027173;28;20483;-71
2023/07/21 03:29:35;;;;;;;2.00;1.70;;;;;;;22.61;47.79;101216.84;5029723;28;20052;-71
2023/07/21 03:32:01;;;;;;;1.38;1.30;;;;;;;22.64;47.50;101213.00;5028364;28;20041;-70
2023/07/21 03:34:27;;;;;;;1.42;1.30;;;;;;;22.60;47.41;101213.34;5027085;28;20033;-71
2023/07/21 03:36:52;;;;;;;1.70;1.60;;;;;;;22.62;47.33;101213.16;5024038;28;20038;-72
2023/07/21 03:39:23;;;;;;;1.65;1.55;;;;;;;22.60;47.46;101220.50;5043453;28;20060;-71
2023/07/21 03:41:49;;;;;;;1.55;1.45;;;;;;;22.61;47.46;101215.00;5044642;28;20061;-70
2023/07/21 03:44:15;;;;;;;2.17;1.70;;;;;;;22.65;47.30;101217.31;5026927;28;20430;-71
2023/07/21 03:46:43;;;;;;;1.52;1.30;;;;;;;22.61;47.64;101216.84;5046864;28;20087;-71
2023/07/21 03:49:18;;;;;;;1.85;1.40;;;;;;;22.58;47.64;101217.22;5029606;28;20072;-71
2023/07/21 03:51:50;;;;;;;1.15;1.10;;;;;;;22.58;47.43;101218.03;5030095;28;20045;-71
2023/07/21 03:54:15;;;;;;;1.63;1.52;;;;;;;22.61;47.62;101215.00;5028498;28;20100;-71
2023/07/21 03:56:41;;;;;;;1.77;1.40;;;;;;;22.58;47.51;101212.72;5026427;28;20058;-71
2023/07/21 03:59:07;;;;;;;1.60;1.38;;;;;;;22.57;47.42;101211.09;5028062;28;20030;-70
2023/07/21 04:01:33;;;;;;;1.33;1.23;;;;;;;22.60;47.44;101215.19;5024899;28;20132;-71
2023/07/21 04:03:58;;;;;;;2.40;1.67;;;;;;;22.55;47.44;101206.97;5028352;28;20022;-71
2023/07/21 04:06:24;;;;;;;1.85;1.30;;;;;;;22.52;47.31;101194.91;5026998;28;20395;-71
2023/07/21 04:08:53;;;;;;;2.28;1.60;;;;;;;22.56;47.46;101198.00;5029217;28;20030;-71
2023/07/21 04:11:19;;;;;;;2.35;1.70;;;;;;;22.52;47.58;101197.56;5027659;28;20066;-72
2023/07/21 04:13:45;;;;;;;1.40;1.30;;;;;;;22.58;47.58;101202.13;5026130;28;20065;-72
2023/07/21 04:16:11;;;;;;;2.45;1.48;;;;;;;22.47;47.36;101172.63;5025904;28;20037;-72
2023/07/21 04:18:38;;;;;;;3.63;1.30;;;;;;;22.57;47.68;101199.66;5025954;28;20038;-72
2023/07/21 04:21:04;;;;;;;1.80;1.42;;;;;;;22.56;47.61;101196.19;5041044;28;20063;-72
2023/07/21 04:23:29;;;;;;;1.50;1.40;;;;;;;22.56;47.50;101196.19;5024790;28;20041;-72
2023/07/21 04:25:55;;;;;;;1.73;1.60;;;;;;;22.55;47.32;101193.72;5041910;28;20041;-72
2023/07/21 04:28:21;;;;;;;2.08;1.70;;;;;;;22.56;47.28;101201.47;5031542;28;20037;-70
2023/07/21 04:30:50;;;;;;;1.65;1.35;;;;;;;22.58;47.64;101203.94;5046202;28;20033;-70
2023/07/21 04:33:16;;;;;;;1.40;1.30;;;;;;;22.55;47.31;101202.50;5031018;28;20451;-71
2023/07/21 04:35:48;;;;;;;2.85;1.50;;;;;;;22.58;47.51;101207.41;5030974;28;20483;-71
2023/07/21 04:38:20;;;;;;;1.50;1.40;;;;;;;22.58;47.58;101199.47;5047754;28;20542;-71
2023/07/21 04:40:52;;;;;;;1.42;1.33;;;;;;;22.55;47.60;101199.03;5031267;28;20129;-72
2023/07/21 04:43:18;;;;;;;1.50;1.40;;;;;;;22.56;47.28;101200.66;5048806;28;20072;-71
2023/07/21 04:45:45;;;;;;;1.52;1.42;;;;;;;22.57;47.38;101200.47;5048509;28;20048;-72
2023/07/21 04:48:18;;;;;;;1.73;1.20;;;;;;;22.56;47.53;101198.81;5031948;28;20038;-72
2023/07/21 04:50:51;;;;;;;2.03;1.33;;;;;;;22.46;47.46;101179.75;5032564;28;20037;-71
2023/07/21 04:53:16;;;;;;;1.35;1.20;;;;;;;22.58;47.53;101202.13;5030699;28;20046;-72
2023/07/21 04:55:42;;;;;;;1.63;1.40;;;;;;;22.58;47.12;101204.75;5033030;28;20191;-72
2023/07/21 04:58:09;;;;;;;1.77;1.45;;;;;;;22.57;47.35;101205.78;5031544;28;20103;-71
2023/07/21 05:00:34;;;;;;;1.95;1.70;;;;;;;22.57;47.32;101199.66;5031217;28;20045;-71
2023/07/21 05:03:00;;;;;;;2.00;1.60;;;;;;;22.56;47.57;101196.19;5028833;28;20071;-71
2023/07/21 05:05:27;;;;;;;1.40;1.27;;;;;;;22.57;47.43;101202.31;5034076;28;20073;-72
2023/07/21 05:07:55;;;;;;;1.65;1.50;;;;;;;22.56;47.33;101195.34;5029543;28;20061;-70
2023/07/21 05:10:23;;;;;;;1.42;1.33;;;;;;;22.59;47.43;101200.28;5012927;28;20037;-71
2023/07/21 05:12:48;;;;;;;2.20;1.52;;;;;;;22.58;47.21;101199.47;5033132;28;20097;-70
2023/07/21 05:15:35;;;;;;;2.85;1.60;;;;;;;22.59;47.38;101194.97;5031909;28;20049;-70
2023/07/21 05:18:37;;;;;;;2.42;1.75;;;;;;;22.54;47.39;101189.41;5016001;28;20052;-71
2023/07/21 05:21:32;;;;;;;1.70;1.60;;;;;;;22.58;47.37;101195.97;5012785;28;20452;-72
2023/07/21 05:24:03;;;;;;;1.83;1.52;;;;;;;22.58;47.49;101199.47;5030473;28;20033;-71
2023/07/21 05:26:30;;;;;;;1.33;1.23;;;;;;;22.55;47.30;101197.19;5026578;28;20045;-72
2023/07/21 05:28:57;;;;;;;1.73;1.63;;;;;;;22.58;47.27;101203.94;5030601;28;20746;-71
2023/07/21 05:31:44;;;;;;;2.20;1.65;;;;;;;22.59;47.10;101198.44;5030023;28;20054;-71
2023/07/21 05:34:21;;;;;;;1.40;1.30;;;;;;;22.57;47.53;101202.31;5043312;28;20125;-71
2023/07/21 05:36:48;;;;;;;1.30;1.20;;;;;;;22.57;47.49;101203.13;5031274;28;20103;-72
2023/07/21 05:39:14;;;;;;;2.22;1.40;;;;;;;22.60;47.06;101202.75;5027976;28;20033;-71
2023/07/21 05:41:40;;;;;;;1.50;1.27;;;;;;;22.62;47.04;101197.25;5030960;28;20121;-72
2023/07/21 05:44:05;;;;;;;1.70;1.60;;;;;;;22.65;47.04;101201.38;5030880;28;20033;-71
2023/07/21 05:46:34;;;;;;;1.67;1.30;;;;;;;22.64;46.94;101191.78;5033303;28;20037;-72
2023/07/21 05:49:03;;;;;;;1.50;1.40;;;;;;;22.64;47.04;101197.09;5030652;28;20092;-72
2023/07/21 05:51:29;;;;;;;1.35;1.25;;;;;;;22.66;47.13;101203.84;5030564;28;20041;-72
2023/07/21 05:54:03;;;;;;;1.45;1.35;;;;;;;22.66;46.98;101198.53;5035621;28;20041;-71
2023/07/21 05:56:30;;;;;;;1.67;1.45;;;;;;;22.60;47.14;101188.66;5029438;28;20045;-71
2023/07/21 05:58:59;;;;;;;1.88;1.50;;;;;;;22.67;47.30;101197.53;5029952;28;20518;-72
2023/07/21 06:01:27;;;;;;;1.85;1.55;;;;;;;22.67;46.84;101189.56;5028339;28;20049;-70
2023/07/21 06:03:52;;;;;;;1.58;1.40;;;;;;;22.69;47.16;101194.66;5032378;28;20785;-71
2023/07/21 06:06:18;;;;;;;1.25;1.15;;;;;;;22.61;47.12;101171.72;5031372;28;20041;-70
2023/07/21 06:09:07;;;;;;;1.20;1.10;;;;;;;22.69;47.15;101186.72;5031876;28;20435;-71
2023/07/21 06:11:43;;;;;;;2.05;1.52;;;;;;;22.69;47.09;101184.88;5015886;28;20038;-70
2023/07/21 06:14:31;;;;;;;2.08;1.33;;;;;;;22.68;47.17;101183.22;5026696;28;20065;-70
2023/07/21 06:17:19;;;;;;;1.50;1.30;;;;;;;22.70;47.06;101181.22;5032048;28;20056;-70
2023/07/21 06:19:48;;;;;;;1.88;1.23;;;;;;;22.72;47.05;101175.69;5031292;28;20037;-70
2023/07/21 06:22:14;;;;;;;1.45;1.08;;;;;;;22.72;47.08;101175.69;5042263;28;20122;-71
2023/07/21 06:24:39;;;;;;;2.20;1.55;;;;;;;22.73;47.02;101170.19;5029400;28;20029;-71
2023/07/21 06:27:05;;;;;;;1.67;1.30;;;;;;;22.73;47.10;101170.19;5046436;28;20037;-71
2023/07/21 06:29:33;;;;;;;1.65;1.38;;;;;;;22.73;46.90;101161.41;5044292;28;20029;-70
2023/07/21 06:31:59;;;;;;;2.03;1.50;;;;;;;22.75;46.98;101168.16;5030677;28;20069;-71
2023/07/21 06:34:54;;;;;;;1.35;1.25;;;;;;;22.75;46.95;101168.16;5028266;28;20073;-70
2023/07/21 06:37:40;;;;;;;2.35;1.30;;;;;;;22.77;46.79;101166.16;5027412;28;20041;-71
2023/07/21 06:40:26;;;;;;;1.60;1.20;;;;;;;22.79;46.79;101171.25;5028786;28;20144;-70
2023/07/21 06:43:21;;;;;;;1.90;1.40;;;;;;;22.80;46.90;101171.09;5032094;28;20044;-70
2023/07/21 06:46:07;;;;;;;2.03;1.40;;;;;;;22.74;46.75;101153.25;5025924;28;20045;-70
2023/07/21 06:49:11;;;;;;;1.55;1.45;;;;;;;22.90;46.76;101168.13;5015208;28;20893;-71
2023/07/21 06:51:45;;;;;;;2.38;1.30;;;;;;;22.92;46.41;101169.56;5007967;28;20041;-70
2023/07/21 06:54:12;;;;;;;3.05;1.27;;;;;;;22.93;46.71;101173.06;5025177;28;20514;-68
2023/07/21 06:56:38;;;;;;;1.30;1.20;;;;;;;22.98;46.66;101162.69;5025765;28;20126;-68
2023/07/21 06:59:03;;;;;;;1.55;1.15;;;;;;;22.88;46.39;101148.91;5044338;28;20506;-69
2023/07/21 07:01:29;;;;;;;1.27;1.17;;;;;;;23.02;46.27;101158.63;5024400;28;20038;-70
2023/07/21 07:03:55;;;;;;;2.15;1.52;;;;;;;23.08;46.38;101149.06;5029237;28;20060;-71
2023/07/21 07:06:21;;;;;;;2.13;1.65;;;;;;;23.17;46.31;101153.22;5045308;28;20080;-71
2023/07/21 07:08:47;;;;;;;1.10;1.10;;;;;;;23.20;46.19;101156.31;5026096;28;20804;-71
2023/07/21 07:11:14;;;;;;;1.90;1.63;;;;;;;23.25;45.93;101147.75;5043766;28;20107;-72
2023/07/21 07:13:40;;;;;;;1.80;1.23;;;;;;;23.27;45.64;101135.09;5031458;28;20049;-71
2023/07/21 07:16:05;;;;;;;1.60;1.10;;;;;;;23.37;45.71;101145.38;5027869;28;20602;-71
2023/07/21 07:18:31;;;;;;;1.60;1.50;;;;;;;23.35;45.69;101128.81;5027654;28;20029;-71
2023/07/21 07:20:56;;;;;;;1.30;1.17;;;;;;;23.46;45.61;101145.03;5023940;28;20412;-71
2023/07/21 07:23:23;;;;;;;1.73;1.50;;;;;;;23.50;45.57;101143.59;5028436;28;20303;-71
2023/07/21 07:25:50;;;;;;;1.15;1.05;;;;;;;23.53;45.38;101134.44;5029248;28;20040;-71
2023/07/21 07:28:18;;;;;;;1.35;1.20;;;;;;;23.57;45.31;101138.38;5026671;28;20183;-71
2023/07/21 07:30:45;;;;;;;1.73;1.33;;;;;;;23.46;45.40;101115.78;5029717;28;20046;-71
2023/07/21 07:33:11;;;;;;;1.35;1.20;;;;;;;23.62;45.13;101135.13;5027040;28;20120;-70
2023/07/21 07:35:37;;;;;;;1.58;1.20;;;;;;;23.59;45.13;101127.53;5032414;28;20053;-72
2023/07/21 07:38:02;;;;;;;2.03;1.23;;;;;;;23.66;45.01;101129.19;5028760;28;20034;-67
2023/07/21 07:40:28;;;;;;;3.08;1.45;;;;;;;23.61;45.26;101120.19;5024913;28;20045;-68
2023/07/21 07:42:54;;;;;;;1.48;1.38;;;;;;;23.73;45.36;101135.38;5025701;28;20098;-67
2023/07/21 07:45:19;;;;;;;1.08;1.02;;;;;;;23.75;45.56;101136.00;5021392;28;20687;-67
2023/07/21 07:47:45;;;;;;;1.48;1.25;;;;;;;23.73;45.44;101142.53;5020055;28;20045;-67
2023/07/21 07:50:13;;;;;;;1.20;1.02;;;;;;;23.78;45.23;101140.09;5025171;28;20507;-67
2023/07/21 07:52:42;;;;;;;2.85;1.20;;;;;;;23.78;45.27;101135.59;5028494;28;20049;-68
2023/07/21 07:55:09;;;;;;;0.93;0.93;;;;;;;23.76;45.48;101128.84;5023178;28;20570;-68
2023/07/21 07:57:35;;;;;;;1.30;1.20;;;;;;;23.85;45.05;101138.28;5032930;28;20694;-68
2023/07/21 08:00:01;;;;;;;1.42;1.17;;;;;;;23.87;45.21;101132.75;5024432;28;20507;-66
2023/07/21 08:02:37;;;;;;;5.85;1.52;;;;;;;23.83;45.28;101123.53;5020615;28;20132;-67
2023/07/21 08:05:02;;;;;;;1.55;1.30;;;;;;;23.87;45.21;101124.78;5026027;28;20045;-68
2023/07/21 08:07:28;;;;;;;1.20;1.10;;;;;;;23.90;45.04;101122.56;5031427;28;20060;-68
2023/07/21 08:09:53;;;;;;;1.80;1.48;;;;;;;23.93;44.99;101118.69;5028331;28;20403;-67
2023/07/21 08:12:19;;;;;;;1.25;1.15;;;;;;;23.96;44.88;101124.41;5021216;28;20045;-68
2023/07/21 08:14:44;;;;;;;1.20;1.10;;;;;;;23.78;44.90;101081.59;5023127;28;20411;-68
2023/07/21 08:17:10;;;;;;;1.40;1.30;;;;;;;23.98;44.94;101122.38;5022539;28;20039;-70
2023/07/21 08:19:35;;;;;;;1.33;1.08;;;;;;;23.99;45.12;101117.88;5033669;28;20046;-71
2023/07/21 08:22:05;;;;;;;1.33;0.98;;;;;;;24.01;44.70;101115.81;5033248;28;20380;-72
2023/07/21 08:24:30;;;;;;;1.85;1.75;;;;;;;23.99;44.53;101115.22;5032200;28;20042;-70
2023/07/21 08:26:58;;;;;;;2.08;1.50;;;;;;;24.03;44.42;101122.59;5032070;28;20049;-70
2023/07/21 08:29:23;;;;;;;1.67;1.38;;;;;;;24.02;44.38;101112.97;5041408;28;20047;-70
2023/07/21 08:31:49;;;;;;;1.52;1.20;;;;;;;24.07;44.38;101115.88;5028180;28;20543;-70
2023/07/21 08:34:14;;;;;;;1.20;1.10;;;;;;;24.06;44.19;101118.72;5031037;28;20033;-71
2023/07/21 08:36:40;;;;;;;1.67;1.13;;;;;;;24.07;44.22;101120.38;5031129;28;20491;-70
2023/07/21 08:39:05;;;;;;;1.60;1.20;;;;;;;24.05;43.91;101130.34;5034802;28;20044;-71
2023/07/21 08:41:38;;;;;;;1.30;1.20;;;;;;;23.99;43.77;101118.69;5030866;28;20041;-70
2023/07/21 08:44:04;;;;;;;1.02;0.90;;;;;;;24.05;43.76;101125.03;5040306;28;20480;-71
2023/07/21 08:46:31;;;;;;;1.33;1.20;;;;;;;24.06;43.76;101119.53;5039686;28;20025;-71
2023/07/21 08:48:59;;;;;;;1.67;1.08;;;;;;;24.11;43.89;101125.06;5022617;28;20062;-71
2023/07/21 08:51:25;;;;;;;3.25;1.33;;;;;;;24.10;43.89;101123.44;5032724;28;20071;-70
2023/07/21 08:53:50;;;;;;;1.23;1.13;;;;;;;24.11;43.91;101114.44;5027786;28;20121;-71
2023/07/21 08:56:17;;;;;;;1.50;0.98;;;;;;;24.10;43.95;101123.44;5027681;28;20064;-71
2023/07/21 08:58:43;;;;;;;2.10;1.35;;;;;;;24.06;43.81;101113.41;5029130;28;20049;-71
2023/07/21 09:01:09;;;;;;;1.58;1.10;;;;;;;24.05;43.63;101112.56;5027811;28;20029;-71
2023/07/21 09:03:34;;;;;;;1.38;1.17;;;;;;;24.05;43.60;101112.56;5028807;28;20049;-70
2023/07/21 09:06:01;;;;;;;0.93;0.93;;;;;;;24.08;43.91;101109.53;5030153;28;20060;-71
2023/07/21 09:08:32;;;;;;;1.27;1.17;;;;;;;24.04;43.69;101094.13;5026293;28;20041;-70
2023/07/21 09:11:02;;;;;;;1.95;1.40;;;;;;;24.13;43.15;101103.59;5026394;28;20072;-71
2023/07/21 09:13:28;;;;;;;;;;;;;;;24.12;43.12;101099.28;5027810;28;20077;-70
2023/07/21 09:16:00;;;;;;;1.52;1.42;;;;;;;24.06;43.69;101102.75;5034316;28;19941;-71
2023/07/21 09:18:26;;;;;;;1.13;1.02;;;;;;;24.07;43.29;101096.44;5035413;28;20044;-70
2023/07/21 09:20:51;;;;;;;2.42;1.45;;;;;;;24.07;43.55;101099.91;5030220;28;20060;-72
2023/07/21 09:23:18;;;;;;;1.20;1.10;;;;;;;24.03;43.53;101080.03;5036961;28;20532;-72
2023/07/21 09:25:57;;;;;;;1.13;1.08;;;;;;;24.15;43.36;101103.38;5028272;28;20152;-71
2023/07/21 09:28:37;;;;;;;1.15;1.15;;;;;;;24.16;43.21;101102.38;5026513;28;20060;-70
2023/07/21 09:31:03;;;;;;;1.98;1.30;;;;;;;24.04;43.10;101079.00;5028381;28;20095;-72
2023/07/21 09:33:29;;;;;;;0.85;0.85;;;;;;;24.08;43.38;101108.69;5030960;28;20042;-71
2023/07/21 09:36:13;;;;;;;1.67;1.15;;;;;;;24.05;43.29;101099.25;5033715;28;20052;-70
2023/07/21 09:38:39;;;;;;;1.20;1.10;;;;;;;24.03;43.05;101090.66;5041664;28;20036;-71
2023/07/21 09:41:07;;;;;;;1.90;1.10;;;;;;;24.04;43.06;101099.47;5030917;28;20038;-71
2023/07/21 09:43:33;;;;;;;0.90;0.90;;;;;;;24.03;43.38;101087.19;5035045;28;20092;-71
2023/07/21 09:46:00;;;;;;;1.33;1.23;;;;;;;24.03;43.50;101092.50;5035328;28;20025;-71
2023/07/21 09:48:30;;;;;;;1.30;1.10;;;;;;;24.03;43.48;101092.50;5039145;28;20105;-71
2023/07/21 09:51:01;;;;;;;1.38;1.27;;;;;;;24.02;43.51;101094.34;5030251;28;20147;-70
2023/07/21 09:53:34;;;;;;;2.22;1.30;;;;;;;24.01;43.59;101094.53;5041606;28;20049;-72
2023/07/21 09:56:02;;;;;;;1.88;1.33;;;;;;;24.00;43.52;101090.25;5029974;28;20057;-71
2023/07/21 09:58:29;;;;;;;1.20;1.10;;;;;;;24.02;43.44;101090.88;5038287;28;20516;-71
2023/07/21 10:01:01;;;;;;;2.35;1.10;;;;;;;23.98;43.27;101081.66;5035140;28;20064;-72
2023/07/21 10:03:26;;;;;;;1.27;1.10;;;;;;;23.95;43.54;101074.91;5034816;28;20120;-71
2023/07/21 10:05:53;;;;;;;1.80;1.20;;;;;;;23.91;43.65;101064.88;5030418;28;20045;-74
2023/07/21 10:08:21;;;;;;;1.60;1.25;;;;;;;24.03;43.41;101082.69;5049956;28;20041;-71
2023/07/21 10:10:47;;;;;;;0.80;0.80;;;;;;;24.02;43.57;101072.25;5023728;28;20121;-71
2023/07/21 10:13:12;;;;;;;1.77;1.10;;;;;;;23.97;43.45;101072.84;5030774;28;20064;-69
2023/07/21 10:15:40;;;;;;;1.50;1.17;;;;;;;23.99;43.43;101070.00;5026372;28;20042;-70
2023/07/21 10:18:06;;;;;;;1.67;1.35;;;;;;;24.00;43.82;101068.97;5029494;28;20061;-69
2023/07/21 10:20:39;;;;;;;4.25;1.13;;;;;;;24.01;44.10;101073.25;5031243;28;20523;-70
2023/07/21 10:23:05;;;;;;;0.80;0.75;;;;;;;23.96;44.03;101063.25;5023146;28;20234;-70
2023/07/21 10:25:52;;;;;;;2.92;1.15;;;;;;;24.00;44.14;101071.63;5028601;28;20060;-69
2023/07/21 10:28:30;;;;;;;1.85;1.23;;;;;;;23.98;43.82;101066.50;5028219;28;20506;-69
2023/07/21 10:31:24;;;;;;;1.23;1.20;;;;;;;23.99;43.77;101077.97;5026225;28;20087;-69
2023/07/21 10:34:03;;;;;;;1.40;1.30;;;;;;;24.00;43.70;101071.63;5025759;28;20360;-70
2023/07/21 10:36:52;;;;;;;2.10;1.30;;;;;;;24.02;43.91;101072.25;5028319;28;20083;-70
2023/07/21 10:39:22;;;;;;;;;;;;;;;23.99;43.57;101077.97;5027195;28;20044;-70
2023/07/21 10:41:50;;;;;;;1.92;1.20;;;;;;;23.90;43.78;101052.59;5031169;28;19928;-70
2023/07/21 10:44:16;;;;;;;1.70;1.40;;;;;;;23.98;43.72;101066.50;5041299;28;20021;-69
2023/07/21 10:46:50;;;;;;;1.67;1.50;;;;;;;23.98;43.68;101071.00;5037490;28;20137;-70
2023/07/21 10:49:17;;;;;;;1.15;1.05;;;;;;;23.99;43.62;101070.00;5025858;28;20029;-68
2023/07/21 10:51:45;;;;;;;1.63;1.33;;;;;;;23.99;43.65;101068.16;5030513;28;20041;-70
2023/07/21 10:54:12;;;;;;;2.13;1.38;;;;;;;24.02;43.42;101072.25;5027200;28;20045;-70
2023/07/21 10:56:39;;;;;;;2.13;1.02;;;;;;;23.97;43.50;101054.22;5026284;28;20117;-69
2023/07/21 10:59:05;;;;;;;2.05;1.30;;;;;;;23.94;43.81;101056.47;5026917;28;20060;-70
2023/07/21 11:01:31;;;;;;;1.33;1.20;;;;;;;24.03;43.71;101071.22;5025891;28;20153;-71
2023/07/21 11:03:58;;;;;;;1.52;1.13;;;;;;;24.00;43.37;101071.63;5030746;28;20033;-69
2023/07/21 11:06:24;;;;;;;1.27;1.17;;;;;;;23.96;43.55;101063.25;5026706;28;20121;-70
2023/07/21 11:08:50;;;;;;;1.38;1.27;;;;;;;24.02;43.40;101082.88;5031953;28;20068;-69
2023/07/21 11:11:16;;;;;;;1.30;1.20;;;;;;;23.99;43.38;101059.34;5024004;28;20087;-70
2023/07/21 11:13:41;;;;;;;0.90;0.90;;;;;;;24.03;43.29;101074.69;5028386;28;20057;-69
2023/07/21 11:16:09;;;;;;;2.38;1.50;;;;;;;24.00;43.48;101069.78;5028662;28;20041;-70
2023/07/21 11:18:34;;;;;;;1.42;1.33;;;;;;;24.02;43.32;101067.75;5026918;28;20041;-69
2023/07/21 11:21:00;;;;;;;2.33;1.23;;;;;;;24.02;43.56;101067.75;5029198;28;20045;-69
2023/07/21 11:23:26;;;;;;;1.95;1.20;;;;;;;24.03;43.34;101055.25;5044875;28;20541;-70
2023/07/21 11:26:11;;;;;;;1.42;1.33;;;;;;;24.02;43.55;101056.28;5021262;28;20127;-69
2023/07/21 11:28:41;;;;;;;1.67;1.35;;;;;;;24.02;43.43;101056.28;5027160;28;20037;-70
2023/07/21 11:31:15;;;;;;;1.20;1.05;;;;;;;24.00;43.27;101042.38;5024941;28;20096;-70
2023/07/21 11:33:47;;;;;;;1.50;1.40;;;;;;;24.04;43.19;101052.41;5024001;28;20065;-71